Pleasant Hill, Oregon
Current Conditions -  °F | °C
As of 3:54 AM on Friday 24 Oct 2014 (Local Time) from KEUG Reporting Station
Broken Clouds Broken Clouds  
Wind Chill: 50°   Ceiling: 8000
Heat Index: 50°   Visibility: 10mi
Dew Point: 47°   Wind: 0mph
Humidity: 89%   Direction: NA
Pressure: 30.01"   Gusts: NA
Location:  43.97°N, 122.93°W
Report Text: KEUG 241054Z AUTO 00000KT 10SM BKN080 10/08 A3001 RMK AO2 SLP160 T01000083
Loading
Personal Weather Stations






























Interactive Weather Map New forecast layout! Learn more

10-Day Weather Forecast

Advertisements
Track Severe Weather on mobile